WSAP/QPG METAR and TAF weather

Enter ICAO airport designator
Station Type Date Time Source
WSAP METAR 2019/11/15 05:00 UTC NOAA

WSAP 150500Z 36007KT 9999 FEW018 BKN270 29/24 Q1010


Station Type Date Time Source
WSAP Decoded METAR 2019/11/15 05:00 UTC NOAA

Singapore / Paya Lebar, Singapore (WSAP) 01-22N 103-55E 32M
Nov 15, 2019 - 12:00 AM EST / 2019.11.15 0500 UTC
Wind: from the N (360 degrees) at 8 MPH (7 KT):0
Visibility: greater than 7 mile(s):0
Sky conditions: mostly cloudy
Temperature: 84 F (29 C)
Dew Point: 75 F (24 C)
Relative Humidity: 74%
Pressure (altimeter): 29.83 in. Hg (1010 hPa)
ob: WSAP 150500Z 36007KT 9999 FEW018 BKN270 29/24 Q1010
cycle: 5

Station Type Date Time Source
WSAP TAF 2019/11/15 06:09 UTC NOAA

TAF TAF WSAP 150500Z 1506/1612 04007KT 9999 FEW015 SCT020

Example: see airport list